createdAt,value
2023-05-24T00:01:10.558Z,85.82
2023-05-24T00:04:16.288Z,85.70
2023-05-24T00:07:21.657Z,86.01
2023-05-24T00:10:26.931Z,86.87
2023-05-24T00:13:32.483Z,87.46
2023-05-24T00:16:38.025Z,87.78
2023-05-24T00:19:43.860Z,87.49
2023-05-24T00:22:49.366Z,88.21
2023-05-24T00:25:55.101Z,88.18
2023-05-24T00:29:00.531Z,88.87
2023-05-24T00:32:06.620Z,89.46
2023-05-24T00:35:11.896Z,89.37
2023-05-24T00:38:17.656Z,89.73
2023-05-24T00:41:23.296Z,89.69
2023-05-24T00:44:29.229Z,90.75
2023-05-24T00:47:35.047Z,92.80
2023-05-24T00:50:42.123Z,91.48
2023-05-24T00:53:49.202Z,91.67
2023-05-24T00:56:57.432Z,92.16
2023-05-24T01:00:06.232Z,93.33
2023-05-24T01:03:11.924Z,95.51
2023-05-24T01:06:18.108Z,94.81
2023-05-24T01:09:34.773Z,94.81
2023-05-24T01:12:53.988Z,98.52
2023-05-24T01:16:15.862Z,99.40
2023-05-24T01:19:45.095Z,100.00
2023-05-24T01:23:27.132Z,100.00
2023-05-24T01:26:40.592Z,100.00
2023-05-24T01:29:53.685Z,100.00
2023-05-24T01:32:59.089Z,100.00
2023-05-24T01:36:05.069Z,100.00
2023-05-24T01:39:11.671Z,100.00
2023-05-24T01:42:25.560Z,100.00
2023-05-24T01:45:59.937Z,100.00
2023-05-24T01:49:23.713Z,100.00
2023-05-24T01:52:34.106Z,100.00
2023-05-24T01:55:41.349Z,100.00
2023-05-24T01:58:48.064Z,100.00
2023-05-24T02:01:54.194Z,100.00
2023-05-24T02:05:00.070Z,100.00
2023-05-24T02:08:06.092Z,100.00
2023-05-24T02:11:11.327Z,100.00
2023-05-24T02:14:20.177Z,100.00
2023-05-24T02:17:27.125Z,100.00
2023-05-24T02:20:37.551Z,100.00
2023-05-24T02:23:43.573Z,100.00
2023-05-24T02:26:49.372Z,100.00
2023-05-24T02:29:55.021Z,100.00
2023-05-24T02:33:01.044Z,100.00
2023-05-24T02:36:06.765Z,100.00
2023-05-24T02:39:12.370Z,100.00
2023-05-24T02:42:17.798Z,100.00
2023-05-24T02:45:23.381Z,100.00
2023-05-24T02:48:28.931Z,100.00
2023-05-24T02:51:34.529Z,100.00
2023-05-24T02:54:40.145Z,100.00
2023-05-24T02:57:45.824Z,100.00
2023-05-24T03:00:51.508Z,100.00
2023-05-24T03:03:59.292Z,100.00
2023-05-24T03:07:05.017Z,100.00
2023-05-24T03:10:11.553Z,100.00
2023-05-24T03:13:17.701Z,100.00
2023-05-24T03:16:23.088Z,100.00
2023-05-24T03:19:28.385Z,100.00
2023-05-24T03:22:35.560Z,100.00
2023-05-24T03:25:41.875Z,100.00
2023-05-24T03:28:48.215Z,100.00
2023-05-24T03:31:54.375Z,100.00
2023-05-24T03:35:01.822Z,100.00
2023-05-24T03:38:07.437Z,100.00
2023-05-24T03:41:15.678Z,100.00
2023-05-24T03:44:21.416Z,100.00
2023-05-24T03:47:27.417Z,100.00
2023-05-24T03:50:33.020Z,100.00
2023-05-24T03:53:38.363Z,100.00
2023-05-24T03:56:44.184Z,100.00
2023-05-24T03:59:49.521Z,100.00
2023-05-24T04:02:56.330Z,100.00
2023-05-24T04:06:02.307Z,100.00
2023-05-24T04:09:10.355Z,100.00
2023-05-24T04:12:15.867Z,100.00
2023-05-24T04:15:21.642Z,100.00
2023-05-24T04:18:27.321Z,100.00
2023-05-24T04:21:35.229Z,100.00
2023-05-24T04:24:42.141Z,100.00
2023-05-24T04:27:49.101Z,100.00
2023-05-24T04:30:55.375Z,100.00
2023-05-24T04:34:00.956Z,100.00
2023-05-24T04:37:06.508Z,100.00
2023-05-24T04:40:12.457Z,100.00
2023-05-24T04:43:18.469Z,100.00
2023-05-24T04:46:23.743Z,100.00
2023-05-24T04:49:29.126Z,100.00
2023-05-24T04:52:36.934Z,100.00
2023-05-24T04:55:43.478Z,100.00
2023-05-24T04:58:49.446Z,100.00
2023-05-24T05:01:55.218Z,100.00
2023-05-24T05:05:01.148Z,100.00
2023-05-24T05:08:06.836Z,100.00
2023-05-24T05:11:13.158Z,100.00
2023-05-24T05:14:18.753Z,100.00
2023-05-24T05:17:24.379Z,100.00
2023-05-24T05:20:30.290Z,100.00
2023-05-24T05:23:36.619Z,100.00
2023-05-24T05:26:42.958Z,100.00
2023-05-24T05:29:48.679Z,100.00
2023-05-24T05:32:54.547Z,100.00
2023-05-24T05:36:00.904Z,100.00
2023-05-24T05:39:06.280Z,100.00
2023-05-24T05:42:11.997Z,100.00
2023-05-24T05:45:17.934Z,100.00
2023-05-24T05:48:23.921Z,100.00
2023-05-24T05:51:29.856Z,100.00
2023-05-24T05:54:36.244Z,100.00
2023-05-24T05:57:41.955Z,100.00
2023-05-24T06:00:47.636Z,100.00
2023-05-24T06:03:53.150Z,100.00
2023-05-24T06:06:59.020Z,99.76
2023-05-24T06:10:04.769Z,100.00
2023-05-24T06:13:10.670Z,100.00
2023-05-24T06:16:16.897Z,99.61
2023-05-24T06:19:22.464Z,99.54
2023-05-24T06:22:31.394Z,99.52
2023-05-24T06:25:38.882Z,97.37
2023-05-24T06:28:45.107Z,95.70
2023-05-24T06:31:51.024Z,94.88
2023-05-24T06:34:56.832Z,96.53
2023-05-24T06:38:02.336Z,92.98
2023-05-24T06:41:09.216Z,93.80
2023-05-24T06:44:15.229Z,90.66
2023-05-24T06:47:22.786Z,87.90
2023-05-24T06:50:28.683Z,85.32
2023-05-24T06:53:34.168Z,85.08
2023-05-24T06:56:40.186Z,84.24
2023-05-24T06:59:46.360Z,84.25
2023-05-24T07:02:52.237Z,83.75
2023-05-24T07:05:58.309Z,83.66
2023-05-24T07:09:05.303Z,82.51
2023-05-24T07:12:11.372Z,83.32
2023-05-24T07:15:17.012Z,82.64
2023-05-24T07:18:22.502Z,83.72
2023-05-24T07:21:28.015Z,84.44
2023-05-24T07:24:33.450Z,83.34
2023-05-24T07:27:39.277Z,83.87
2023-05-24T07:30:45.714Z,82.73
2023-05-24T07:33:51.333Z,82.73
2023-05-24T07:36:59.563Z,81.67
2023-05-24T07:40:06.969Z,80.35
2023-05-24T07:43:13.041Z,78.99
2023-05-24T07:46:18.870Z,78.61
2023-05-24T07:49:25.064Z,79.00
2023-05-24T07:52:31.545Z,77.17
2023-05-24T07:55:36.768Z,75.78
2023-05-24T07:58:42.198Z,77.73
2023-05-24T08:01:48.058Z,78.30
2023-05-24T08:04:53.882Z,77.08
2023-05-24T08:07:59.177Z,77.79
2023-05-24T08:11:04.311Z,77.63
2023-05-24T08:14:09.795Z,78.09
2023-05-24T08:17:15.212Z,77.15
2023-05-24T08:20:21.284Z,75.63
2023-05-24T08:23:27.241Z,77.32
2023-05-24T08:26:33.022Z,76.13
2023-05-24T08:29:39.579Z,76.92
2023-05-24T08:32:44.784Z,76.76
2023-05-24T08:35:53.343Z,76.51
2023-05-24T08:39:00.230Z,77.90
2023-05-24T08:42:09.273Z,79.38
2023-05-24T08:45:16.508Z,79.39
2023-05-24T08:48:22.734Z,80.04
2023-05-24T08:51:28.034Z,83.86
2023-05-24T08:54:38.079Z,80.17
2023-05-24T08:57:46.071Z,74.24
2023-05-24T09:00:51.658Z,72.64
2023-05-24T09:03:57.523Z,71.47
2023-05-24T09:07:03.283Z,70.28
2023-05-24T09:10:10.051Z,68.71
2023-05-24T09:13:16.296Z,68.41
2023-05-24T09:16:22.493Z,67.88
2023-05-24T09:19:29.282Z,66.84
2023-05-24T09:22:38.146Z,67.18
2023-05-24T09:25:47.213Z,65.80
2023-05-24T09:28:56.195Z,66.47
2023-05-24T09:32:02.625Z,63.83
2023-05-24T09:35:09.939Z,65.01
2023-05-24T09:38:19.751Z,63.76
2023-05-24T09:41:25.795Z,62.98
2023-05-24T09:44:31.455Z,63.08
2023-05-24T09:47:39.004Z,61.96
2023-05-24T09:50:47.996Z,61.74
2023-05-24T09:53:58.232Z,63.70
2023-05-24T09:57:05.192Z,61.86
2023-05-24T10:00:17.366Z,60.57
2023-05-24T10:03:25.544Z,61.83
2023-05-24T10:06:35.436Z,59.61
2023-05-24T10:09:40.994Z,59.72
2023-05-24T10:12:47.230Z,63.33
2023-05-24T10:15:52.523Z,64.00
2023-05-24T10:18:57.949Z,63.40
2023-05-24T10:22:07.727Z,62.57
2023-05-24T10:25:22.101Z,63.40
2023-05-24T10:28:28.600Z,60.53
2023-05-24T10:31:39.077Z,59.13
2023-05-24T10:34:46.291Z,61.07
2023-05-24T10:37:52.768Z,60.94
2023-05-24T10:41:39.245Z,59.34
2023-05-24T10:44:45.356Z,60.37
2023-05-24T10:47:51.314Z,58.59
2023-05-24T10:50:57.650Z,60.31
2023-05-24T10:54:14.008Z,59.53
2023-05-24T10:57:25.110Z,62.39
2023-05-24T11:00:48.378Z,60.05
2023-05-24T11:03:54.073Z,55.76
2023-05-24T11:07:05.690Z,52.54
2023-05-24T11:10:17.213Z,54.47
2023-05-24T11:13:22.858Z,54.53
2023-05-24T11:16:40.686Z,52.50
2023-05-24T11:19:55.981Z,51.95
2023-05-24T11:23:12.339Z,53.69
2023-05-24T11:26:17.583Z,51.87
2023-05-24T11:29:23.473Z,53.60
2023-05-24T11:32:29.489Z,54.27
2023-05-24T11:35:34.600Z,54.71
2023-05-24T11:38:41.450Z,54.86
2023-05-24T11:41:48.024Z,53.51
2023-05-24T11:44:54.054Z,55.51
2023-05-24T11:48:05.511Z,55.54
2023-05-24T11:51:11.884Z,53.92
2023-05-24T11:54:19.405Z,55.78
2023-05-24T11:57:38.635Z,56.10
2023-05-24T12:00:44.816Z,55.27
2023-05-24T12:03:53.993Z,56.83
2023-05-24T12:07:00.024Z,57.56
2023-05-24T12:10:06.902Z,56.77
2023-05-24T12:13:26.299Z,56.25
2023-05-24T12:16:33.547Z,56.75
2023-05-24T12:19:39.789Z,56.82
2023-05-24T12:22:53.014Z,57.43
2023-05-24T12:26:02.411Z,58.78
2023-05-24T12:29:08.123Z,58.96
2023-05-24T12:32:14.821Z,57.99
2023-05-24T12:35:21.501Z,59.06
2023-05-24T12:38:27.008Z,56.44
2023-05-24T12:41:33.713Z,57.34
2023-05-24T12:44:40.204Z,57.79
2023-05-24T12:47:45.461Z,57.90
2023-05-24T12:50:51.513Z,59.33
2023-05-24T12:53:57.450Z,57.11
2023-05-24T12:57:03.604Z,57.62
2023-05-24T13:00:11.046Z,58.05
2023-05-24T13:03:17.875Z,57.58
2023-05-24T13:06:23.605Z,57.85
2023-05-24T13:09:29.438Z,57.46
2023-05-24T13:12:34.930Z,56.27
2023-05-24T13:15:42.183Z,55.95
2023-05-24T13:18:49.915Z,55.59
2023-05-24T13:21:55.832Z,56.03
2023-05-24T13:25:02.951Z,55.40
2023-05-24T13:28:08.478Z,55.53
2023-05-24T13:31:14.716Z,55.86
2023-05-24T13:34:20.447Z,55.86
2023-05-24T13:37:27.481Z,55.91
2023-05-24T13:40:33.207Z,55.42
2023-05-24T13:43:38.737Z,55.58
2023-05-24T13:46:44.794Z,56.30
2023-05-24T13:49:50.314Z,53.46
2023-05-24T13:52:56.538Z,53.59
2023-05-24T13:56:03.129Z,53.37
2023-05-24T14:17:50.979Z,53.83
2023-05-24T14:20:56.530Z,52.60
2023-05-24T14:24:01.964Z,53.18
2023-05-24T14:27:07.690Z,52.95
2023-05-24T14:30:13.157Z,51.32
2023-05-24T14:33:18.730Z,51.32
2023-05-24T14:36:24.452Z,53.04
2023-05-24T14:39:30.413Z,52.66
2023-05-24T14:42:36.345Z,51.57
2023-05-24T14:45:43.244Z,52.34
2023-05-24T14:48:49.195Z,50.97
2023-05-24T14:51:54.725Z,50.88
2023-05-24T14:55:00.377Z,50.96
2023-05-24T14:58:09.546Z,51.44
2023-05-24T15:01:15.120Z,52.38
2023-05-24T15:04:20.649Z,53.04
2023-05-24T15:07:26.670Z,54.49
2023-05-24T15:10:32.821Z,53.23
2023-05-24T15:13:38.749Z,52.96
2023-05-24T15:16:44.179Z,52.95
2023-05-24T15:19:49.627Z,52.19
2023-05-24T15:22:54.769Z,52.66
2023-05-24T15:26:00.603Z,55.24
2023-05-24T15:29:06.109Z,54.94
2023-05-24T15:32:11.794Z,54.67
2023-05-24T15:35:18.068Z,55.00
2023-05-24T15:38:23.575Z,55.89
2023-05-24T15:41:29.004Z,55.32
2023-05-24T15:44:34.073Z,57.12
2023-05-24T15:47:40.673Z,56.74
2023-05-24T15:53:54.455Z,58.29
2023-05-24T15:57:02.118Z,58.43
2023-05-24T16:00:08.327Z,58.90
2023-05-24T16:03:20.404Z,60.69
2023-05-24T16:06:26.515Z,60.04
2023-05-24T16:09:32.382Z,59.01
2023-05-24T16:12:37.533Z,59.97
2023-05-24T16:15:43.207Z,61.21
2023-05-24T16:18:48.623Z,61.70
2023-05-24T16:21:54.950Z,62.86
2023-05-24T16:25:01.122Z,65.28
2023-05-24T16:28:07.330Z,66.53
2023-05-24T16:31:13.533Z,68.45
2023-05-24T16:34:19.558Z,70.78
2023-05-24T16:37:25.488Z,69.68
2023-05-24T16:40:32.619Z,70.21
2023-05-24T16:43:38.157Z,67.88
2023-05-24T16:46:46.808Z,68.40
2023-05-24T16:49:52.738Z,69.47
2023-05-24T16:52:59.897Z,70.80
2023-05-24T16:56:05.994Z,72.04
2023-05-24T16:59:11.938Z,73.60
2023-05-24T17:02:17.666Z,71.77
2023-05-24T17:05:23.306Z,71.10
2023-05-24T17:08:30.669Z,72.16
2023-05-24T17:11:37.723Z,74.18
2023-05-24T17:14:44.195Z,74.89
2023-05-24T17:17:52.966Z,78.41
2023-05-24T17:21:04.773Z,81.06
2023-05-24T17:24:10.843Z,83.59
2023-05-24T17:27:19.957Z,91.91
2023-05-24T17:30:30.695Z,98.18
2023-05-24T17:33:38.199Z,100.00
2023-05-24T17:36:44.986Z,100.00
2023-05-24T17:39:53.570Z,100.00
2023-05-24T17:42:59.929Z,100.00
2023-05-24T17:46:09.764Z,100.00
2023-05-24T17:49:15.165Z,100.00
2023-05-24T17:52:20.671Z,100.00
2023-05-24T17:55:27.477Z,100.00
2023-05-24T17:58:37.165Z,100.00
2023-05-24T18:01:44.232Z,100.00
2023-05-24T18:04:53.038Z,100.00
2023-05-24T18:08:01.567Z,100.00
2023-05-24T18:11:11.610Z,100.00
2023-05-24T18:14:17.447Z,100.00
2023-05-24T18:17:23.273Z,100.00
2023-05-24T18:20:30.301Z,100.00
2023-05-24T18:23:40.423Z,100.00
2023-05-24T18:26:47.702Z,100.00
2023-05-24T18:29:54.316Z,100.00
2023-05-24T18:36:08.833Z,100.00
2023-05-24T18:39:14.254Z,100.00
2023-05-24T18:42:20.963Z,100.00
2023-05-24T18:45:26.285Z,100.00
2023-05-24T18:48:32.971Z,100.00
2023-05-24T18:51:41.581Z,100.00
2023-05-24T18:54:47.051Z,100.00
2023-05-24T18:57:55.435Z,100.00
2023-05-24T19:01:01.214Z,100.00
2023-05-24T19:04:08.718Z,100.00
2023-05-24T19:07:16.889Z,100.00
2023-05-24T19:10:24.205Z,100.00
2023-05-24T19:13:31.827Z,100.00
2023-05-24T19:16:38.366Z,100.00
2023-05-24T19:19:45.513Z,100.00
2023-05-24T19:22:51.462Z,100.00
2023-05-24T19:26:02.527Z,100.00
2023-05-24T19:29:10.588Z,100.00
2023-05-24T19:32:16.318Z,99.89
2023-05-24T19:35:23.161Z,100.00
2023-05-24T19:38:30.326Z,99.01
2023-05-24T19:41:41.595Z,97.58
2023-05-24T19:44:51.076Z,99.13
2023-05-24T19:47:56.961Z,98.50
2023-05-24T19:51:02.206Z,97.65
2023-05-24T19:54:09.498Z,96.88
2023-05-24T19:57:16.458Z,97.44
2023-05-24T20:00:24.722Z,97.10
2023-05-24T20:03:34.764Z,97.40
2023-05-24T20:06:43.314Z,97.81
2023-05-24T20:09:50.507Z,98.68
2023-05-24T20:12:57.557Z,99.61
2023-05-24T20:16:12.046Z,98.00
2023-05-24T20:19:21.847Z,100.00
2023-05-24T20:22:29.879Z,100.00
2023-05-24T20:25:37.310Z,100.00
2023-05-24T20:28:45.497Z,100.00
2023-05-24T20:31:51.416Z,100.00
2023-05-24T20:34:58.862Z,100.00
2023-05-24T20:38:04.580Z,100.00
2023-05-24T20:41:14.140Z,100.00
2023-05-24T20:44:20.154Z,100.00
2023-05-24T20:47:30.290Z,100.00
2023-05-24T20:50:37.946Z,100.00
2023-05-24T20:53:46.190Z,100.00
2023-05-24T20:56:52.168Z,100.00
2023-05-24T21:00:00.221Z,100.00
2023-05-24T21:03:11.650Z,100.00
2023-05-24T21:06:17.186Z,100.00
2023-05-24T21:09:22.767Z,100.00
2023-05-24T21:12:31.162Z,100.00
2023-05-24T21:15:38.535Z,100.00
2023-05-24T21:18:43.827Z,100.00
2023-05-24T21:21:49.132Z,100.00
2023-05-24T21:24:56.140Z,100.00
2023-05-24T21:28:02.915Z,100.00
2023-05-24T21:31:08.059Z,100.00
2023-05-24T21:34:13.605Z,100.00
2023-05-24T21:37:18.841Z,100.00
2023-05-24T21:40:24.572Z,100.00
2023-05-24T21:43:29.907Z,99.96
2023-05-24T21:46:36.653Z,97.21
2023-05-24T21:49:42.391Z,93.20
2023-05-24T21:52:47.894Z,90.06
2023-05-24T21:55:53.218Z,90.46
2023-05-24T21:58:58.738Z,90.80
2023-05-24T22:02:04.431Z,91.75
2023-05-24T22:05:10.413Z,94.54
2023-05-24T22:08:15.818Z,93.85
2023-05-24T22:11:21.704Z,91.78
2023-05-24T22:14:27.336Z,92.24
2023-05-24T22:17:33.314Z,92.05
2023-05-24T22:20:38.932Z,90.28
2023-05-24T22:23:44.309Z,90.94
2023-05-24T22:26:50.195Z,90.66
2023-05-24T22:29:56.012Z,90.17
2023-05-24T22:33:01.998Z,90.58
2023-05-24T22:36:07.413Z,89.14
2023-05-24T22:39:12.731Z,90.42
2023-05-24T22:42:18.227Z,90.58
2023-05-24T22:45:23.573Z,90.56
2023-05-24T22:48:28.891Z,91.51
2023-05-24T22:51:34.406Z,91.06
2023-05-24T22:54:39.857Z,92.67
2023-05-24T22:57:45.178Z,92.55
2023-05-24T23:00:51.636Z,91.99
2023-05-24T23:04:07.770Z,93.01
2023-05-24T23:07:23.099Z,93.98
2023-05-24T23:10:28.346Z,94.58
2023-05-24T23:13:36.183Z,94.25
2023-05-24T23:16:45.984Z,93.27
2023-05-24T23:19:51.606Z,92.90
2023-05-24T23:22:59.291Z,92.61
2023-05-24T23:26:04.568Z,93.00
2023-05-24T23:29:10.381Z,92.77
2023-05-24T23:32:15.631Z,93.54
2023-05-24T23:35:21.377Z,94.84
2023-05-24T23:38:26.642Z,96.38
2023-05-24T23:41:31.823Z,97.12
2023-05-24T23:44:37.404Z,98.90
2023-05-24T23:47:42.611Z,100.00
2023-05-24T23:50:54.000Z,100.00
2023-05-24T23:54:01.295Z,100.00
2023-05-24T23:57:07.912Z,100.00
